sensor_id;sensor_type;location;lat;lon;timestamp;pressure;altitude;pressure_sealevel;temperature
62180;BMP280;48172;53.374;10.722;2022-12-07T00:01:26;101271.81;;;20.07
62180;BMP280;48172;53.374;10.722;2022-12-07T00:03:55;101274.22;;;20.05
62180;BMP280;48172;53.374;10.722;2022-12-07T00:06:41;101260.75;;;20.01
62180;BMP280;48172;53.374;10.722;2022-12-07T00:09:13;101260.00;;;20.01
62180;BMP280;48172;53.374;10.722;2022-12-07T00:11:40;101245.34;;;19.98
62180;BMP280;48172;53.374;10.722;2022-12-07T00:14:10;101248.94;;;19.95
62180;BMP280;48172;53.374;10.722;2022-12-07T00:16:36;101240.47;;;19.93
62180;BMP280;48172;53.374;10.722;2022-12-07T00:19:03;101240.91;;;19.91
62180;BMP280;48172;53.374;10.722;2022-12-07T00:21:35;101239.81;;;19.89
62180;BMP280;48172;53.374;10.722;2022-12-07T00:24:02;101234.09;;;19.87
62180;BMP280;48172;53.374;10.722;2022-12-07T00:26:33;101239.63;;;19.83
62180;BMP280;48172;53.374;10.722;2022-12-07T00:29:16;101238.84;;;19.83
62180;BMP280;48172;53.374;10.722;2022-12-07T00:31:43;101227.69;;;19.81
62180;BMP280;48172;53.374;10.722;2022-12-07T00:34:15;101223.88;;;19.78
62180;BMP280;48172;53.374;10.722;2022-12-07T00:36:42;101233.53;;;19.79
62180;BMP280;48172;53.374;10.722;2022-12-07T00:39:09;101230.94;;;19.76
62180;BMP280;48172;53.374;10.722;2022-12-07T00:41:36;101222.47;;;19.74
62180;BMP280;48172;53.374;10.722;2022-12-07T00:44:02;101223.03;;;19.69
62180;BMP280;48172;53.374;10.722;2022-12-07T00:46:29;101215.00;;;19.65
62180;BMP280;48172;53.374;10.722;2022-12-07T00:48:55;101204.91;;;19.65
62180;BMP280;48172;53.374;10.722;2022-12-07T00:51:23;101204.25;;;19.61
62180;BMP280;48172;53.374;10.722;2022-12-07T00:53:50;101201.53;;;19.61
62180;BMP280;48172;53.374;10.722;2022-12-07T00:56:22;101193.13;;;19.59
62180;BMP280;48172;53.374;10.722;2022-12-07T00:58:51;101192.78;;;19.57
62180;BMP280;48172;53.374;10.722;2022-12-07T01:01:18;101197.13;;;19.55
62180;BMP280;48172;53.374;10.722;2022-12-07T01:03:44;101179.75;;;19.52
62180;BMP280;48172;53.374;10.722;2022-12-07T01:06:14;101177.19;;;19.49
62180;BMP280;48172;53.374;10.722;2022-12-07T01:08:42;101178.81;;;19.46
62180;BMP280;48172;53.374;10.722;2022-12-07T01:11:12;101175.63;;;19.48
62180;BMP280;48172;53.374;10.722;2022-12-07T01:13:40;101169.16;;;19.45
62180;BMP280;48172;53.374;10.722;2022-12-07T01:16:08;101166.88;;;19.44
62180;BMP280;48172;53.374;10.722;2022-12-07T01:18:36;101176.94;;;19.43
62180;BMP280;48172;53.374;10.722;2022-12-07T01:21:04;101172.41;;;19.40
62180;BMP280;48172;53.374;10.722;2022-12-07T01:23:33;101168.59;;;19.38
62180;BMP280;48172;53.374;10.722;2022-12-07T01:26:02;101169.34;;;19.38
62180;BMP280;48172;53.374;10.722;2022-12-07T01:28:29;101155.16;;;19.34
62180;BMP280;48172;53.374;10.722;2022-12-07T01:33:23;101148.66;;;19.31
62180;BMP280;48172;53.374;10.722;2022-12-07T01:35:50;101148.66;;;19.31
62180;BMP280;48172;53.374;10.722;2022-12-07T01:38:16;101147.56;;;19.29
62180;BMP280;48172;53.374;10.722;2022-12-07T01:40:43;101148.44;;;19.26
62180;BMP280;48172;53.374;10.722;2022-12-07T01:43:16;101143.78;;;19.26
62180;BMP280;48172;53.374;10.722;2022-12-07T01:45:44;101140.72;;;19.24
62180;BMP280;48172;53.374;10.722;2022-12-07T01:48:13;101144.31;;;19.21
62180;BMP280;48172;53.374;10.722;2022-12-07T01:50:42;101144.44;;;19.18
62180;BMP280;48172;53.374;10.722;2022-12-07T01:53:10;101139.00;;;19.18
62180;BMP280;48172;53.374;10.722;2022-12-07T01:55:40;101139.13;;;19.14
62180;BMP280;48172;53.374;10.722;2022-12-07T01:58:08;101134.88;;;19.13
62180;BMP280;48172;53.374;10.722;2022-12-07T02:00:35;101129.56;;;19.10
62180;BMP280;48172;53.374;10.722;2022-12-07T02:03:13;101133.38;;;19.12
62180;BMP280;48172;53.374;10.722;2022-12-07T02:05:42;101131.09;;;19.11
62180;BMP280;48172;53.374;10.722;2022-12-07T02:08:10;101131.19;;;19.07
62180;BMP280;48172;53.374;10.722;2022-12-07T02:10:38;101123.50;;;19.06
62180;BMP280;48172;53.374;10.722;2022-12-07T02:13:14;101114.28;;;19.03
62180;BMP280;48172;53.374;10.722;2022-12-07T02:21:51;101114.50;;;18.96
62180;BMP280;48172;53.374;10.722;2022-12-07T02:30:02;101107.66;;;18.91
62180;BMP280;48172;53.374;10.722;2022-12-07T02:37:41;101099.22;;;18.89
62180;BMP280;48172;53.374;10.722;2022-12-07T02:40:36;101099.97;;;18.90
62180;BMP280;48172;53.374;10.722;2022-12-07T02:43:12;101103.13;;;18.88
62180;BMP280;48172;53.374;10.722;2022-12-07T02:45:41;101096.22;;;18.87
62180;BMP280;48172;53.374;10.722;2022-12-07T02:48:10;101100.41;;;18.88
62180;BMP280;48172;53.374;10.722;2022-12-07T02:50:38;101092.72;;;18.87
62180;BMP280;48172;53.374;10.722;2022-12-07T02:53:04;101096.63;;;18.86
62180;BMP280;48172;53.374;10.722;2022-12-07T02:55:38;101086.22;;;18.84
62180;BMP280;48172;53.374;10.722;2022-12-07T02:58:46;101083.19;;;18.82
62180;BMP280;48172;53.374;10.722;2022-12-07T03:01:31;101074.31;;;18.82
62180;BMP280;48172;53.374;10.722;2022-12-07T03:04:32;101079.72;;;18.82
62180;BMP280;48172;53.374;10.722;2022-12-07T03:07:11;101081.66;;;18.81
62180;BMP280;48172;53.374;10.722;2022-12-07T03:15:22;101085.66;;;18.77
62180;BMP280;48172;53.374;10.722;2022-12-07T03:17:54;101081.00;;;18.77
62180;BMP280;48172;53.374;10.722;2022-12-07T03:20:22;101079.91;;;18.75
62180;BMP280;48172;53.374;10.722;2022-12-07T03:22:51;101085.34;;;18.75
62180;BMP280;48172;53.374;10.722;2022-12-07T03:25:19;101080.38;;;18.73
62180;BMP280;48172;53.374;10.722;2022-12-07T03:28:02;101077.69;;;18.73
62180;BMP280;48172;53.374;10.722;2022-12-07T03:30:40;101075.38;;;18.72
62180;BMP280;48172;53.374;10.722;2022-12-07T03:35:40;101071.91;;;18.71
62180;BMP280;48172;53.374;10.722;2022-12-07T03:40:59;101068.53;;;18.67
62180;BMP280;48172;53.374;10.722;2022-12-07T03:43:29;101070.84;;;18.69
62180;BMP280;48172;53.374;10.722;2022-12-07T03:48:57;101065.06;;;18.66
62180;BMP280;48172;53.374;10.722;2022-12-07T03:51:34;101060.09;;;18.65
62180;BMP280;48172;53.374;10.722;2022-12-07T03:56:44;101063.22;;;18.63
62180;BMP280;48172;53.374;10.722;2022-12-07T03:59:12;101059.75;;;18.63
62180;BMP280;48172;53.374;10.722;2022-12-07T04:01:44;101059.44;;;18.61
62180;BMP280;48172;53.374;10.722;2022-12-07T04:04:11;101071.00;;;18.61
62180;BMP280;48172;53.374;10.722;2022-12-07T04:06:37;101083.47;;;18.59
62180;BMP280;48172;53.374;10.722;2022-12-07T04:09:04;101079.56;;;18.60
62180;BMP280;48172;53.374;10.722;2022-12-07T04:11:30;101079.22;;;18.58
62180;BMP280;48172;53.374;10.722;2022-12-07T04:13:57;101081.94;;;18.58
62180;BMP280;48172;53.374;10.722;2022-12-07T04:16:41;101087.34;;;18.58
62180;BMP280;48172;53.374;10.722;2022-12-07T04:19:10;101089.28;;;18.57
62180;BMP280;48172;53.374;10.722;2022-12-07T04:21:37;101090.47;;;18.56
62180;BMP280;48172;53.374;10.722;2022-12-07T04:24:04;101093.66;;;18.55
62180;BMP280;48172;53.374;10.722;2022-12-07T04:26:31;101094.03;;;18.53
62180;BMP280;48172;53.374;10.722;2022-12-07T04:28:57;101091.34;;;18.53
62180;BMP280;48172;53.374;10.722;2022-12-07T04:31:30;101090.94;;;18.55
62180;BMP280;48172;53.374;10.722;2022-12-07T04:33:56;101085.94;;;18.53
62180;BMP280;48172;53.374;10.722;2022-12-07T04:36:23;101087.53;;;18.51
62180;BMP280;48172;53.374;10.722;2022-12-07T04:38:50;101090.25;;;18.51
62180;BMP280;48172;53.374;10.722;2022-12-07T04:41:18;101091.00;;;18.51
62180;BMP280;48172;53.374;10.722;2022-12-07T04:43:45;101084.19;;;18.47
62180;BMP280;48172;53.374;10.722;2022-12-07T04:46:12;101093.81;;;18.48
62180;BMP280;48172;53.374;10.722;2022-12-07T04:48:39;101095.75;;;18.47
62180;BMP280;48172;53.374;10.722;2022-12-07T04:51:05;101095.31;;;18.49
62180;BMP280;48172;53.374;10.722;2022-12-07T04:53:32;101091.53;;;18.46
62180;BMP280;48172;53.374;10.722;2022-12-07T04:55:58;101089.59;;;18.47
62180;BMP280;48172;53.374;10.722;2022-12-07T04:58:25;101089.69;;;18.43
62180;BMP280;48172;53.374;10.722;2022-12-07T05:00:54;101093.16;;;18.44
62180;BMP280;48172;53.374;10.722;2022-12-07T05:03:21;101093.91;;;18.44
62180;BMP280;48172;53.374;10.722;2022-12-07T05:05:48;101092.06;;;18.41
62180;BMP280;48172;53.374;10.722;2022-12-07T05:08:14;101104.50;;;18.39
62180;BMP280;48172;53.374;10.722;2022-12-07T05:10:41;101101.34;;;18.40
62180;BMP280;48172;53.374;10.722;2022-12-07T05:13:07;101109.91;;;18.39
62180;BMP280;48172;53.374;10.722;2022-12-07T05:15:34;101103.31;;;18.40
62180;BMP280;48172;53.374;10.722;2022-12-07T05:18:00;101106.53;;;18.34
62180;BMP280;48172;53.374;10.722;2022-12-07T05:20:27;101108.03;;;18.36
62180;BMP280;48172;53.374;10.722;2022-12-07T05:22:53;101108.47;;;18.34
62180;BMP280;48172;53.374;10.722;2022-12-07T05:25:20;101108.47;;;18.34
62180;BMP280;48172;53.374;10.722;2022-12-07T05:27:46;101110.13;;;18.31
62180;BMP280;48172;53.374;10.722;2022-12-07T05:30:13;101113.56;;;18.32
62180;BMP280;48172;53.374;10.722;2022-12-07T05:32:40;101104.69;;;18.31
62180;BMP280;48172;53.374;10.722;2022-12-07T05:35:06;101110.94;;;18.28
62180;BMP280;48172;53.374;10.722;2022-12-07T05:37:33;101105.53;;;18.28
62180;BMP280;48172;53.374;10.722;2022-12-07T05:40:00;101106.72;;;18.27
62180;BMP280;48172;53.374;10.722;2022-12-07T05:42:27;101110.63;;;18.26
62180;BMP280;48172;53.374;10.722;2022-12-07T05:44:54;101112.22;;;18.24
62180;BMP280;48172;53.374;10.722;2022-12-07T05:47:21;101117.63;;;18.24
62180;BMP280;48172;53.374;10.722;2022-12-07T05:49:47;101115.34;;;18.22
62180;BMP280;48172;53.374;10.722;2022-12-07T05:52:14;101119.66;;;18.20
62180;BMP280;48172;53.374;10.722;2022-12-07T05:54:40;101114.63;;;18.22
62180;BMP280;48172;53.374;10.722;2022-12-07T05:57:07;101120.22;;;18.27
62180;BMP280;48172;53.374;10.722;2022-12-07T05:59:33;101114.63;;;18.34
62180;BMP280;48172;53.374;10.722;2022-12-07T06:02:12;101110.13;;;18.44
62180;BMP280;48172;53.374;10.722;2022-12-07T06:04:41;101113.75;;;18.54
62180;BMP280;48172;53.374;10.722;2022-12-07T06:07:09;101107.31;;;18.64
62180;BMP280;48172;53.374;10.722;2022-12-07T06:09:36;101118.56;;;18.75
62180;BMP280;48172;53.374;10.722;2022-12-07T06:12:03;101121.75;;;18.86
62180;BMP280;48172;53.374;10.722;2022-12-07T06:14:48;101113.63;;;18.99
62180;BMP280;48172;53.374;10.722;2022-12-07T06:17:15;101115.28;;;19.09
62180;BMP280;48172;53.374;10.722;2022-12-07T06:19:42;101116.47;;;19.21
62180;BMP280;48172;53.374;10.722;2022-12-07T06:22:10;101116.91;;;19.32
62180;BMP280;48172;53.374;10.722;2022-12-07T06:24:38;101117.03;;;19.41
62180;BMP280;48172;53.374;10.722;2022-12-07T06:27:05;101120.59;;;19.51
62180;BMP280;48172;53.374;10.722;2022-12-07T06:29:32;101114.53;;;19.59
62180;BMP280;48172;53.374;10.722;2022-12-07T06:31:58;101118.06;;;19.69
62180;BMP280;48172;53.374;10.722;2022-12-07T06:34:25;101114.69;;;19.78
62180;BMP280;48172;53.374;10.722;2022-12-07T06:36:53;101114.78;;;19.87
62180;BMP280;48172;53.374;10.722;2022-12-07T06:39:23;101117.25;;;19.94
62180;BMP280;48172;53.374;10.722;2022-12-07T06:41:50;101115.84;;;20.02
62180;BMP280;48172;53.374;10.722;2022-12-07T06:44:21;101120.22;;;20.09
62180;BMP280;48172;53.374;10.722;2022-12-07T06:46:49;101116.09;;;20.17
62180;BMP280;48172;53.374;10.722;2022-12-07T06:49:16;101113.56;;;20.22
62180;BMP280;48172;53.374;10.722;2022-12-07T06:51:43;101122.69;;;20.28
62180;BMP280;48172;53.374;10.722;2022-12-07T06:54:11;101109.16;;;20.38
62180;BMP280;48172;53.374;10.722;2022-12-07T06:56:38;101112.84;;;20.44
62180;BMP280;48172;53.374;10.722;2022-12-07T06:59:05;101108.03;;;20.48
62180;BMP280;48172;53.374;10.722;2022-12-07T07:01:33;101111.69;;;20.54
62180;BMP280;48172;53.374;10.722;2022-12-07T07:04:01;101115.69;;;20.62
62180;BMP280;48172;53.374;10.722;2022-12-07T07:06:28;101110.13;;;20.66
62180;BMP280;48172;53.374;10.722;2022-12-07T07:08:54;101115.75;;;20.71
62180;BMP280;48172;53.374;10.722;2022-12-07T07:11:20;101123.28;;;20.76
62180;BMP280;48172;53.374;10.722;2022-12-07T07:13:47;101122.44;;;20.79
62180;BMP280;48172;53.374;10.722;2022-12-07T07:16:13;101124.22;;;20.82
62180;BMP280;48172;53.374;10.722;2022-12-07T07:18:40;101120.31;;;20.83
62180;BMP280;48172;53.374;10.722;2022-12-07T07:21:07;101128.31;;;20.87
62180;BMP280;48172;53.374;10.722;2022-12-07T07:23:33;101138.72;;;20.88
62180;BMP280;48172;53.374;10.722;2022-12-07T07:26:00;101130.91;;;20.90
62180;BMP280;48172;53.374;10.722;2022-12-07T07:28:26;101123.81;;;20.93
62180;BMP280;48172;53.374;10.722;2022-12-07T07:30:53;101122.94;;;20.96
62180;BMP280;48172;53.374;10.722;2022-12-07T07:33:19;101131.81;;;20.96
62180;BMP280;48172;53.374;10.722;2022-12-07T07:35:46;101126.28;;;21.00
62180;BMP280;48172;53.374;10.722;2022-12-07T07:38:12;101130.06;;;21.03
62180;BMP280;48172;53.374;10.722;2022-12-07T07:40:38;101130.84;;;21.03
62180;BMP280;48172;53.374;10.722;2022-12-07T07:43:05;101132.63;;;21.06
62180;BMP280;48172;53.374;10.722;2022-12-07T07:45:32;101130.25;;;21.08
62180;BMP280;48172;53.374;10.722;2022-12-07T07:47:58;101134.47;;;21.09
62180;BMP280;48172;53.374;10.722;2022-12-07T07:50:25;101131.28;;;21.11
62180;BMP280;48172;53.374;10.722;2022-12-07T07:52:51;101133.59;;;21.12
62180;BMP280;48172;53.374;10.722;2022-12-07T07:55:18;101142.78;;;21.15
62180;BMP280;48172;53.374;10.722;2022-12-07T07:57:55;101143.53;;;21.15
62180;BMP280;48172;53.374;10.722;2022-12-07T08:00:22;101142.78;;;21.15
62180;BMP280;48172;53.374;10.722;2022-12-07T08:02:48;101141.13;;;21.17
62180;BMP280;48172;53.374;10.722;2022-12-07T08:05:15;101139.03;;;21.21
62180;BMP280;48172;53.374;10.722;2022-12-07T08:07:45;101138.91;;;21.25
62180;BMP280;48172;53.374;10.722;2022-12-07T08:10:13;101146.94;;;21.28
62180;BMP280;48172;53.374;10.722;2022-12-07T08:12:41;101153.44;;;21.31
62180;BMP280;48172;53.374;10.722;2022-12-07T08:15:29;101152.09;;;21.36
62180;BMP280;48172;53.374;10.722;2022-12-07T08:17:57;101148.03;;;21.40
62180;BMP280;48172;53.374;10.722;2022-12-07T08:20:24;101148.31;;;21.42
62180;BMP280;48172;53.374;10.722;2022-12-07T08:22:50;101150.59;;;21.44
62180;BMP280;48172;53.374;10.722;2022-12-07T08:25:17;101144.88;;;21.51
62180;BMP280;48172;53.374;10.722;2022-12-07T08:27:44;101147.44;;;21.54
62180;BMP280;48172;53.374;10.722;2022-12-07T08:30:10;101146.53;;;21.57
62180;BMP280;48172;53.374;10.722;2022-12-07T08:32:37;101142.19;;;21.60
62180;BMP280;48172;53.374;10.722;2022-12-07T08:35:04;101149.00;;;21.64
62180;BMP280;48172;53.374;10.722;2022-12-07T08:37:31;101149.59;;;21.69
62180;BMP280;48172;53.374;10.722;2022-12-07T08:39:57;101144.75;;;21.73
62180;BMP280;48172;53.374;10.722;2022-12-07T08:42:24;101152.78;;;21.76
62180;BMP280;48172;53.374;10.722;2022-12-07T08:44:56;101146.88;;;21.78
62180;BMP280;48172;53.374;10.722;2022-12-07T08:47:24;101153.69;;;21.82
62180;BMP280;48172;53.374;10.722;2022-12-07T08:49:52;101158.97;;;21.86
62180;BMP280;48172;53.374;10.722;2022-12-07T08:52:19;101153.38;;;21.89
62180;BMP280;48172;53.374;10.722;2022-12-07T08:54:46;101151.28;;;21.93
62180;BMP280;48172;53.374;10.722;2022-12-07T08:57:13;101146.88;;;21.96
62180;BMP280;48172;53.374;10.722;2022-12-07T08:59:39;101146.75;;;21.99
62180;BMP280;48172;53.374;10.722;2022-12-07T09:02:06;101152.03;;;22.03
62180;BMP280;48172;53.374;10.722;2022-12-07T09:04:32;101153.56;;;22.04
62180;BMP280;48172;53.374;10.722;2022-12-07T09:06:59;101160.81;;;22.07
62180;BMP280;48172;53.374;10.722;2022-12-07T09:09:26;101157.16;;;22.10
62180;BMP280;48172;53.374;10.722;2022-12-07T09:11:52;101154.78;;;22.12
62180;BMP280;48172;53.374;10.722;2022-12-07T09:14:19;101152.31;;;22.14
62180;BMP280;48172;53.374;10.722;2022-12-07T09:16:45;101150.22;;;22.18
62180;BMP280;48172;53.374;10.722;2022-12-07T09:19:12;101157.34;;;22.16
62180;BMP280;48172;53.374;10.722;2022-12-07T09:21:39;101150.97;;;22.19
62180;BMP280;48172;53.374;10.722;2022-12-07T09:24:06;101162.59;;;22.19
62180;BMP280;48172;53.374;10.722;2022-12-07T09:26:33;101162.59;;;22.19
62180;BMP280;48172;53.374;10.722;2022-12-07T09:29:04;101155.06;;;22.23
62180;BMP280;48172;53.374;10.722;2022-12-07T09:31:31;101157.31;;;22.25
62180;BMP280;48172;53.374;10.722;2022-12-07T09:33:59;101152.19;;;22.27
62180;BMP280;48172;53.374;10.722;2022-12-07T09:36:26;101158.22;;;22.31
62180;BMP280;48172;53.374;10.722;2022-12-07T09:38:53;101157.78;;;22.32
62180;BMP280;48172;53.374;10.722;2022-12-07T09:41:21;101158.09;;;22.34
62180;BMP280;48172;53.374;10.722;2022-12-07T09:43:48;101153.41;;;22.35
62180;BMP280;48172;53.374;10.722;2022-12-07T09:46:17;101151.44;;;22.36
62180;BMP280;48172;53.374;10.722;2022-12-07T09:48:47;101152.63;;;22.34
62180;BMP280;48172;53.374;10.722;2022-12-07T09:51:22;101146.75;;;22.36
62180;BMP280;48172;53.374;10.722;2022-12-07T09:53:53;101148.56;;;22.39
62180;BMP280;48172;53.374;10.722;2022-12-07T09:56:20;101145.06;;;22.39
62180;BMP280;48172;53.374;10.722;2022-12-07T09:58:48;101139.63;;;22.39
62180;BMP280;48172;53.374;10.722;2022-12-07T10:01:18;101157.16;;;22.38
62180;BMP280;48172;53.374;10.722;2022-12-07T10:04:00;101151.44;;;22.36
62180;BMP280;48172;53.374;10.722;2022-12-07T10:06:28;101147.34;;;22.31
62180;BMP280;48172;53.374;10.722;2022-12-07T10:08:54;101146.75;;;22.27
62180;BMP280;48172;53.374;10.722;2022-12-07T10:11:21;101139.78;;;22.26
62180;BMP280;48172;53.374;10.722;2022-12-07T10:13:51;101136.00;;;22.23
62180;BMP280;48172;53.374;10.722;2022-12-07T10:16:38;101135.56;;;22.25
62180;BMP280;48172;53.374;10.722;2022-12-07T10:19:22;101139.03;;;22.25
62180;BMP280;48172;53.374;10.722;2022-12-07T10:24:27;101141.75;;;22.25
62180;BMP280;48172;53.374;10.722;2022-12-07T10:26:54;101138.88;;;22.29
62180;BMP280;48172;53.374;10.722;2022-12-07T10:29:34;101139.78;;;22.26
62180;BMP280;48172;53.374;10.722;2022-12-07T10:32:35;101133.75;;;22.31
62180;BMP280;48172;53.374;10.722;2022-12-07T10:35:27;101130.25;;;22.30
62180;BMP280;48172;53.374;10.722;2022-12-07T10:37:55;101124.06;;;22.30
62180;BMP280;48172;53.374;10.722;2022-12-07T10:40:25;101135.69;;;22.30
62180;BMP280;48172;53.374;10.722;2022-12-07T10:57:16;101120.59;;;22.29
62180;BMP280;48172;53.374;10.722;2022-12-07T10:59:57;101118.16;;;22.31
62180;BMP280;48172;53.374;10.722;2022-12-07T11:08:00;101106.97;;;22.29
62180;BMP280;48172;53.374;10.722;2022-12-07T11:10:43;101098.06;;;22.29
62180;BMP280;48172;53.374;10.722;2022-12-07T11:16:19;101108.50;;;22.21
62180;BMP280;48172;53.374;10.722;2022-12-07T11:19:17;101106.53;;;22.22
62180;BMP280;48172;53.374;10.722;2022-12-07T11:22:13;101112.44;;;22.20
62180;BMP280;48172;53.374;10.722;2022-12-07T11:27:40;101101.84;;;22.13
62180;BMP280;48172;53.374;10.722;2022-12-07T11:30:19;101096.53;;;22.10
62180;BMP280;48172;53.374;10.722;2022-12-07T11:35:51;101082.38;;;22.06
62180;BMP280;48172;53.374;10.722;2022-12-07T11:38:46;101079.34;;;22.04
62180;BMP280;48172;53.374;10.722;2022-12-07T11:41:30;101080.56;;;22.03
62180;BMP280;48172;53.374;10.722;2022-12-07T11:54:57;101078.88;;;21.96
62180;BMP280;48172;53.374;10.722;2022-12-07T11:57:33;101076.00;;;21.99
62180;BMP280;48172;53.374;10.722;2022-12-07T12:00:06;101075.59;;;22.01
62180;BMP280;48172;53.374;10.722;2022-12-07T12:02:44;101073.16;;;22.03
62180;BMP280;48172;53.374;10.722;2022-12-07T12:05:18;101071.03;;;22.07
62180;BMP280;48172;53.374;10.722;2022-12-07T12:07:54;101068.31;;;22.07
62180;BMP280;48172;53.374;10.722;2022-12-07T12:17:10;101065.44;;;22.11
62180;BMP280;48172;53.374;10.722;2022-12-07T12:22:39;101075.38;;;22.14
62180;BMP280;48172;53.374;10.722;2022-12-07T12:25:21;101075.38;;;22.14
62180;BMP280;48172;53.374;10.722;2022-12-07T12:27:52;101076.47;;;22.16
62180;BMP280;48172;53.374;10.722;2022-12-07T12:30:40;101074.78;;;22.19
62180;BMP280;48172;53.374;10.722;2022-12-07T12:33:22;101074.63;;;22.22
62180;BMP280;48172;53.374;10.722;2022-12-07T12:51:54;101059.16;;;22.38
62180;BMP280;48172;53.374;10.722;2022-12-07T12:54:34;101060.69;;;22.39
62180;BMP280;48172;53.374;10.722;2022-12-07T12:59:59;101051.31;;;22.40
62180;BMP280;48172;53.374;10.722;2022-12-07T13:02:37;101060.97;;;22.41
62180;BMP280;48172;53.374;10.722;2022-12-07T13:15:50;101056.41;;;22.47
62180;BMP280;48172;53.374;10.722;2022-12-07T13:26:41;101046.59;;;22.49
62180;BMP280;48172;53.374;10.722;2022-12-07T13:29:13;101061.41;;;22.48
62180;BMP280;48172;53.374;10.722;2022-12-07T13:36:58;101050.06;;;22.50
62180;BMP280;48172;53.374;10.722;2022-12-07T13:39:28;101063.22;;;22.51
62180;BMP280;48172;53.374;10.722;2022-12-07T13:41:58;101065.94;;;22.51
62180;BMP280;48172;53.374;10.722;2022-12-07T13:44:39;101067.16;;;22.50
62180;BMP280;48172;53.374;10.722;2022-12-07T13:49:56;101069.88;;;22.50
62180;BMP280;48172;53.374;10.722;2022-12-07T13:52:26;101073.34;;;22.51
62180;BMP280;48172;53.374;10.722;2022-12-07T13:57:35;101081.81;;;22.53
62180;BMP280;48172;53.374;10.722;2022-12-07T14:00:06;101076.38;;;22.53
62180;BMP280;48172;53.374;10.722;2022-12-07T14:05:34;101076.06;;;22.51
62180;BMP280;48172;53.374;10.722;2022-12-07T14:08:22;101085.91;;;22.48
62180;BMP280;48172;53.374;10.722;2022-12-07T14:13:39;101083.03;;;22.43
62180;BMP280;48172;53.374;10.722;2022-12-07T14:16:25;101083.50;;;22.41
62180;BMP280;48172;53.374;10.722;2022-12-07T14:18:54;101088.66;;;22.39
62180;BMP280;48172;53.374;10.722;2022-12-07T14:21:28;101085.34;;;22.35
62180;BMP280;48172;53.374;10.722;2022-12-07T14:26:40;101080.81;;;22.32
62180;BMP280;48172;53.374;10.722;2022-12-07T14:29:38;101083.69;;;22.28
62180;BMP280;48172;53.374;10.722;2022-12-07T14:32:26;101075.53;;;22.19
62180;BMP280;48172;53.374;10.722;2022-12-07T14:35:07;101076.47;;;22.16
62180;BMP280;48172;53.374;10.722;2022-12-07T14:37:37;101078.59;;;22.12
62180;BMP280;48172;53.374;10.722;2022-12-07T14:40:06;101073.75;;;22.07
62180;BMP280;48172;53.374;10.722;2022-12-07T14:42:34;101072.69;;;22.05
62180;BMP280;48172;53.374;10.722;2022-12-07T14:45:01;101072.09;;;22.00
62180;BMP280;48172;53.374;10.722;2022-12-07T14:47:28;101077.97;;;21.99
62180;BMP280;48172;53.374;10.722;2022-12-07T14:50:17;101070.72;;;21.96
62180;BMP280;48172;53.374;10.722;2022-12-07T14:52:47;101076.75;;;21.91
62180;BMP280;48172;53.374;10.722;2022-12-07T14:55:34;101074.22;;;21.87
62180;BMP280;48172;53.374;10.722;2022-12-07T14:58:01;101087.63;;;21.82
62180;BMP280;48172;53.374;10.722;2022-12-07T15:00:28;101076.63;;;21.76
62180;BMP280;48172;53.374;10.722;2022-12-07T15:02:55;101081.00;;;21.74
62180;BMP280;48172;53.374;10.722;2022-12-07T15:05:22;101075.41;;;21.68
62180;BMP280;48172;53.374;10.722;2022-12-07T15:07:49;101075.59;;;21.64
62180;BMP280;48172;53.374;10.722;2022-12-07T15:10:25;101080.84;;;21.59
62180;BMP280;48172;53.374;10.722;2022-12-07T15:12:57;101082.97;;;21.55
62180;BMP280;48172;53.374;10.722;2022-12-07T15:15:44;101074.94;;;21.51
62180;BMP280;48172;53.374;10.722;2022-12-07T15:18:10;101075.84;;;21.48
62180;BMP280;48172;53.374;10.722;2022-12-07T15:20:37;101076.78;;;21.45
62180;BMP280;48172;53.374;10.722;2022-12-07T15:23:04;101071.44;;;21.42
62180;BMP280;48172;53.374;10.722;2022-12-07T15:25:30;101075.81;;;21.39
62180;BMP280;48172;53.374;10.722;2022-12-07T15:27:57;101078.25;;;21.37
62180;BMP280;48172;53.374;10.722;2022-12-07T15:30:23;101076.00;;;21.36
62180;BMP280;48172;53.374;10.722;2022-12-07T15:32:51;101080.38;;;21.33
62180;BMP280;48172;53.374;10.722;2022-12-07T15:35:23;101087.00;;;21.32
62180;BMP280;48172;53.374;10.722;2022-12-07T15:37:50;101092.56;;;21.28
62180;BMP280;48172;53.374;10.722;2022-12-07T15:40:16;101085.28;;;21.25
62180;BMP280;48172;53.374;10.722;2022-12-07T15:42:43;101089.56;;;21.26
62180;BMP280;48172;53.374;10.722;2022-12-07T15:45:10;101093.59;;;21.22
62180;BMP280;48172;53.374;10.722;2022-12-07T15:47:39;101090.88;;;21.22
62180;BMP280;48172;53.374;10.722;2022-12-07T15:50:26;101091.78;;;21.19
62180;BMP280;48172;53.374;10.722;2022-12-07T15:52:53;101085.16;;;21.20
62180;BMP280;48172;53.374;10.722;2022-12-07T15:55:19;101088.31;;;21.18
62180;BMP280;48172;53.374;10.722;2022-12-07T15:57:46;101089.50;;;21.17
62180;BMP280;48172;53.374;10.722;2022-12-07T16:00:13;101089.66;;;21.14
62180;BMP280;48172;53.374;10.722;2022-12-07T16:02:40;101090.53;;;21.11
62180;BMP280;48172;53.374;10.722;2022-12-07T16:05:06;101086.03;;;21.08
62180;BMP280;48172;53.374;10.722;2022-12-07T16:07:33;101094.59;;;21.06
62180;BMP280;48172;53.374;10.722;2022-12-07T16:09:59;101090.97;;;21.00
62180;BMP280;48172;53.374;10.722;2022-12-07T16:12:26;101083.69;;;20.97
62180;BMP280;48172;53.374;10.722;2022-12-07T16:14:52;101089.28;;;20.93
62180;BMP280;48172;53.374;10.722;2022-12-07T16:17:19;101080.06;;;20.91
62180;BMP280;48172;53.374;10.722;2022-12-07T16:19:45;101086.25;;;20.91
62180;BMP280;48172;53.374;10.722;2022-12-07T16:22:12;101080.66;;;20.86
62180;BMP280;48172;53.374;10.722;2022-12-07T16:24:38;101081.28;;;20.90
62180;BMP280;48172;53.374;10.722;2022-12-07T16:27:05;101084.75;;;20.90